sensor_id;sensor_type;location;lat;lon;timestamp;pressure;altitude;pressure_sealevel;temperature;humidity
83448;BME280;73376;45.472;-73.568;2023-12-14T00:01:32;102995.88;;;-2.52;44.17
83448;BME280;73376;45.472;-73.568;2023-12-14T00:03:58;103007.91;;;-2.60;43.41
83448;BME280;73376;45.472;-73.568;2023-12-14T00:06:24;102999.69;;;-2.75;43.60
83448;BME280;73376;45.472;-73.568;2023-12-14T00:08:53;103034.41;;;-2.73;43.49
83448;BME280;73376;45.472;-73.568;2023-12-14T00:11:19;102974.25;;;-3.21;43.40
83448;BME280;73376;45.472;-73.568;2023-12-14T00:13:45;103038.63;;;-3.05;42.96
83448;BME280;73376;45.472;-73.568;2023-12-14T00:16:11;103038.31;;;-3.18;43.16
83448;BME280;73376;45.472;-73.568;2023-12-14T00:18:37;103052.91;;;-3.25;43.25
83448;BME280;73376;45.472;-73.568;2023-12-14T00:21:04;103048.63;;;-3.50;43.52
83448;BME280;73376;45.472;-73.568;2023-12-14T00:23:30;103049.41;;;-3.67;43.72
83448;BME280;73376;45.472;-73.568;2023-12-14T00:25:57;103075.25;;;-3.67;43.89
83448;BME280;73376;45.472;-73.568;2023-12-14T00:28:23;103051.47;;;-3.94;44.09
83448;BME280;73376;45.472;-73.568;2023-12-14T00:30:49;103064.84;;;-3.94;44.26
83448;BME280;73376;45.472;-73.568;2023-12-14T00:33:15;103067.03;;;-4.03;44.35
83448;BME280;73376;45.472;-73.568;2023-12-14T00:35:41;103069.06;;;-4.10;43.68
83448;BME280;73376;45.472;-73.568;2023-12-14T00:38:10;103065.97;;;-4.21;44.27
83448;BME280;73376;45.472;-73.568;2023-12-14T00:40:36;103048.28;;;-4.46;43.99
83448;BME280;73376;45.472;-73.568;2023-12-14T00:43:04;103054.47;;;-4.45;44.12
83448;BME280;73376;45.472;-73.568;2023-12-14T00:45:31;103075.44;;;-4.35;44.25
83448;BME280;73376;45.472;-73.568;2023-12-14T00:47:57;103040.16;;;-4.65;44.07
83448;BME280;73376;45.472;-73.568;2023-12-14T00:50:23;103088.56;;;-4.52;43.95
83448;BME280;73376;45.472;-73.568;2023-12-14T00:52:49;103039.25;;;-4.87;43.64
83448;BME280;73376;45.472;-73.568;2023-12-14T00:55:15;103091.53;;;-4.60;43.27
83448;BME280;73376;45.472;-73.568;2023-12-14T00:57:42;103089.41;;;-4.73;43.19
83448;BME280;73376;45.472;-73.568;2023-12-14T01:00:08;103053.25;;;-5.04;43.33
83448;BME280;73376;45.472;-73.568;2023-12-14T01:02:38;103105.84;;;-4.84;43.25
83448;BME280;73376;45.472;-73.568;2023-12-14T01:05:04;103084.31;;;-5.03;43.10
83448;BME280;73376;45.472;-73.568;2023-12-14T01:07:31;103097.16;;;-5.13;43.13
83448;BME280;73376;45.472;-73.568;2023-12-14T01:09:57;103082.97;;;-5.15;43.29
83448;BME280;73376;45.472;-73.568;2023-12-14T01:12:23;103064.22;;;-5.37;43.51
83448;BME280;73376;45.472;-73.568;2023-12-14T01:14:52;103096.88;;;-5.30;43.58
83448;BME280;73376;45.472;-73.568;2023-12-14T01:17:18;103113.63;;;-5.27;43.33
83448;BME280;73376;45.472;-73.568;2023-12-14T01:19:44;103100.00;;;-5.42;43.59
83448;BME280;73376;45.472;-73.568;2023-12-14T01:22:10;103088.78;;;-5.52;43.86
83448;BME280;73376;45.472;-73.568;2023-12-14T01:24:37;103127.31;;;-5.36;43.92
83448;BME280;73376;45.472;-73.568;2023-12-14T01:27:06;103125.78;;;-5.43;44.17
83448;BME280;73376;45.472;-73.568;2023-12-14T01:29:32;103126.84;;;-5.49;44.03
83448;BME280;73376;45.472;-73.568;2023-12-14T01:31:58;103125.44;;;-5.59;44.24
83448;BME280;73376;45.472;-73.568;2023-12-14T01:34:24;103141.25;;;-5.54;44.47
83448;BME280;73376;45.472;-73.568;2023-12-14T01:36:50;103118.03;;;-5.76;44.70
83448;BME280;73376;45.472;-73.568;2023-12-14T01:39:16;103099.75;;;-5.86;44.89
83448;BME280;73376;45.472;-73.568;2023-12-14T01:41:42;103116.31;;;-5.78;45.03
83448;BME280;73376;45.472;-73.568;2023-12-14T01:44:11;103108.59;;;-5.86;44.95
83448;BME280;73376;45.472;-73.568;2023-12-14T01:46:37;103137.22;;;-5.66;45.30
83448;BME280;73376;45.472;-73.568;2023-12-14T01:49:05;103139.13;;;-5.69;45.37
83448;BME280;73376;45.472;-73.568;2023-12-14T01:51:31;103110.31;;;-5.85;45.37
83448;BME280;73376;45.472;-73.568;2023-12-14T01:53:59;103085.31;;;-6.06;45.62
83448;BME280;73376;45.472;-73.568;2023-12-14T01:56:25;103093.41;;;-6.09;45.43
83448;BME280;73376;45.472;-73.568;2023-12-14T01:58:51;103144.97;;;-5.85;45.65
83448;BME280;73376;45.472;-73.568;2023-12-14T02:01:27;103145.97;;;-5.87;46.07
83448;BME280;73376;45.472;-73.568;2023-12-14T02:03:55;103146.06;;;-5.90;45.98
83448;BME280;73376;45.472;-73.568;2023-12-14T02:06:21;103133.31;;;-6.07;46.13
83448;BME280;73376;45.472;-73.568;2023-12-14T02:08:50;103152.47;;;-5.96;46.44
83448;BME280;73376;45.472;-73.568;2023-12-14T02:11:16;103159.78;;;-6.03;46.57
83448;BME280;73376;45.472;-73.568;2023-12-14T02:13:42;103158.84;;;-6.00;46.59
83448;BME280;73376;45.472;-73.568;2023-12-14T02:16:08;103136.44;;;-6.21;46.77
83448;BME280;73376;45.472;-73.568;2023-12-14T02:18:35;103136.38;;;-6.20;46.94
83448;BME280;73376;45.472;-73.568;2023-12-14T02:21:01;103150.50;;;-6.17;46.86
83448;BME280;73376;45.472;-73.568;2023-12-14T02:23:27;103123.44;;;-6.32;47.06
83448;BME280;73376;45.472;-73.568;2023-12-14T02:25:53;103175.06;;;-6.08;47.31
83448;BME280;73376;45.472;-73.568;2023-12-14T02:28:19;103171.59;;;-6.11;47.14
83448;BME280;73376;45.472;-73.568;2023-12-14T02:30:45;103146.44;;;-6.29;47.25
83448;BME280;73376;45.472;-73.568;2023-12-14T02:33:11;103132.69;;;-6.44;47.41
83448;BME280;73376;45.472;-73.568;2023-12-14T02:35:38;103179.91;;;-6.21;47.49
83448;BME280;73376;45.472;-73.568;2023-12-14T02:38:04;103180.84;;;-6.23;47.72
83448;BME280;73376;45.472;-73.568;2023-12-14T02:40:30;103168.56;;;-6.27;47.92
83448;BME280;73376;45.472;-73.568;2023-12-14T02:42:56;103124.28;;;-6.58;48.04
83448;BME280;73376;45.472;-73.568;2023-12-14T02:45:22;103173.13;;;-6.31;48.29
83448;BME280;73376;45.472;-73.568;2023-12-14T02:47:48;103138.28;;;-6.53;48.41
83448;BME280;73376;45.472;-73.568;2023-12-14T02:50:15;103156.59;;;-6.42;48.69
83448;BME280;73376;45.472;-73.568;2023-12-14T02:52:41;103154.94;;;-6.46;48.72
83448;BME280;73376;45.472;-73.568;2023-12-14T02:55:08;103180.34;;;-6.36;48.56
83448;BME280;73376;45.472;-73.568;2023-12-14T02:57:34;103185.50;;;-6.30;48.61
83448;BME280;73376;45.472;-73.568;2023-12-14T03:00:00;103125.56;;;-6.71;48.62
83448;BME280;73376;45.472;-73.568;2023-12-14T03:02:26;103183.94;;;-6.37;48.60
83448;BME280;73376;45.472;-73.568;2023-12-14T03:04:52;103176.31;;;-6.49;48.72
83448;BME280;73376;45.472;-73.568;2023-12-14T03:07:18;103190.47;;;-6.47;48.73
83448;BME280;73376;45.472;-73.568;2023-12-14T03:09:44;103209.00;;;-6.44;49.12
83448;BME280;73376;45.472;-73.568;2023-12-14T03:12:10;103194.25;;;-6.56;49.05
83448;BME280;73376;45.472;-73.568;2023-12-14T03:14:37;103198.63;;;-6.53;49.33
83448;BME280;73376;45.472;-73.568;2023-12-14T03:17:06;103175.09;;;-6.67;48.90
83448;BME280;73376;45.472;-73.568;2023-12-14T03:19:32;103149.03;;;-6.85;49.28
83448;BME280;73376;45.472;-73.568;2023-12-14T03:21:58;103204.16;;;-6.61;49.26
83448;BME280;73376;45.472;-73.568;2023-12-14T03:24:24;103220.91;;;-6.57;49.43
83448;BME280;73376;45.472;-73.568;2023-12-14T03:26:50;103204.25;;;-6.64;49.49
83448;BME280;73376;45.472;-73.568;2023-12-14T03:29:16;103171.19;;;-6.85;49.54
83448;BME280;73376;45.472;-73.568;2023-12-14T03:31:42;103206.97;;;-6.65;49.72
83448;BME280;73376;45.472;-73.568;2023-12-14T03:34:09;103215.63;;;-6.59;49.33
83448;BME280;73376;45.472;-73.568;2023-12-14T03:36:34;103233.47;;;-6.62;49.25
83448;BME280;73376;45.472;-73.568;2023-12-14T03:39:03;103247.78;;;-6.67;49.39
83448;BME280;73376;45.472;-73.568;2023-12-14T03:41:29;103203.41;;;-6.97;49.68
83448;BME280;73376;45.472;-73.568;2023-12-14T03:43:55;103226.19;;;-6.87;49.93
83448;BME280;73376;45.472;-73.568;2023-12-14T03:46:21;103236.91;;;-6.90;49.66
83448;BME280;73376;45.472;-73.568;2023-12-14T03:48:47;103257.78;;;-6.75;49.90
83448;BME280;73376;45.472;-73.568;2023-12-14T03:51:13;103254.25;;;-6.75;49.69
83448;BME280;73376;45.472;-73.568;2023-12-14T03:53:39;103206.28;;;-7.05;49.77
83448;BME280;73376;45.472;-73.568;2023-12-14T03:56:05;103231.66;;;-6.92;49.70
83448;BME280;73376;45.472;-73.568;2023-12-14T03:58:31;103237.75;;;-6.88;49.90
83448;BME280;73376;45.472;-73.568;2023-12-14T04:00:57;103250.81;;;-6.79;50.08
83448;BME280;73376;45.472;-73.568;2023-12-14T04:03:23;103192.38;;;-7.15;49.89
83448;BME280;73376;45.472;-73.568;2023-12-14T04:05:50;103229.78;;;-6.90;50.28
83448;BME280;73376;45.472;-73.568;2023-12-14T04:08:16;103242.81;;;-6.79;50.11
83448;BME280;73376;45.472;-73.568;2023-12-14T04:10:42;103241.19;;;-6.84;50.34
83448;BME280;73376;45.472;-73.568;2023-12-14T04:13:08;103252.56;;;-6.79;50.12
83448;BME280;73376;45.472;-73.568;2023-12-14T04:15:34;103220.31;;;-7.00;50.53
83448;BME280;73376;45.472;-73.568;2023-12-14T04:18:00;103243.78;;;-6.83;50.35
83448;BME280;73376;45.472;-73.568;2023-12-14T04:20:28;103242.97;;;-6.85;50.63
83448;BME280;73376;45.472;-73.568;2023-12-14T04:22:55;103192.47;;;-7.18;50.65
83448;BME280;73376;45.472;-73.568;2023-12-14T04:25:21;103249.31;;;-6.89;50.92
83448;BME280;73376;45.472;-73.568;2023-12-14T04:27:47;103259.25;;;-6.96;51.02
83448;BME280;73376;45.472;-73.568;2023-12-14T04:30:15;103249.78;;;-7.07;51.71
83448;BME280;73376;45.472;-73.568;2023-12-14T04:32:41;103238.50;;;-7.16;51.13
83448;BME280;73376;45.472;-73.568;2023-12-14T04:35:08;103277.06;;;-6.99;51.25
83448;BME280;73376;45.472;-73.568;2023-12-14T04:37:34;103274.50;;;-7.04;51.41
83448;BME280;73376;45.472;-73.568;2023-12-14T04:40:01;103264.91;;;-7.09;51.73
83448;BME280;73376;45.472;-73.568;2023-12-14T04:42:28;103272.75;;;-7.05;51.73
83448;BME280;73376;45.472;-73.568;2023-12-14T04:44:54;103251.00;;;-7.21;51.81
83448;BME280;73376;45.472;-73.568;2023-12-14T04:47:20;103271.91;;;-7.05;51.73
83448;BME280;73376;45.472;-73.568;2023-12-14T04:49:46;103267.56;;;-7.09;51.79
83448;BME280;73376;45.472;-73.568;2023-12-14T04:52:12;103248.28;;;-7.18;51.96
83448;BME280;73376;45.472;-73.568;2023-12-14T04:54:38;103204.75;;;-7.46;51.85
83448;BME280;73376;45.472;-73.568;2023-12-14T04:57:06;103276.13;;;-6.98;51.86
83448;BME280;73376;45.472;-73.568;2023-12-14T04:59:32;103267.50;;;-7.06;52.07
83448;BME280;73376;45.472;-73.568;2023-12-14T05:01:58;103272.72;;;-7.03;51.86
83448;BME280;73376;45.472;-73.568;2023-12-14T05:04:24;103282.41;;;-7.01;52.25
83448;BME280;73376;45.472;-73.568;2023-12-14T05:06:50;103228.16;;;-7.28;52.20
83448;BME280;73376;45.472;-73.568;2023-12-14T05:09:16;103240.44;;;-7.22;52.16
83448;BME280;73376;45.472;-73.568;2023-12-14T05:11:42;103249.28;;;-7.22;52.43
83448;BME280;73376;45.472;-73.568;2023-12-14T05:14:08;103216.97;;;-7.39;52.58
83448;BME280;73376;45.472;-73.568;2023-12-14T05:16:34;103268.53;;;-7.14;52.84
83448;BME280;73376;45.472;-73.568;2023-12-14T05:19:00;103257.25;;;-7.22;52.76
83448;BME280;73376;45.472;-73.568;2023-12-14T05:21:27;103175.22;;;-7.70;52.97
83448;BME280;73376;45.472;-73.568;2023-12-14T05:23:55;103281.84;;;-7.14;52.71
83448;BME280;73376;45.472;-73.568;2023-12-14T05:26:21;103252.16;;;-7.29;52.97
83448;BME280;73376;45.472;-73.568;2023-12-14T05:28:47;103261.78;;;-7.25;52.70
83448;BME280;73376;45.472;-73.568;2023-12-14T05:31:13;103269.81;;;-7.28;52.95
83448;BME280;73376;45.472;-73.568;2023-12-14T05:33:39;103277.94;;;-7.33;52.91
83448;BME280;73376;45.472;-73.568;2023-12-14T05:36:06;103315.44;;;-7.11;53.19
83448;BME280;73376;45.472;-73.568;2023-12-14T05:38:38;103296.28;;;-7.24;53.11
83448;BME280;73376;45.472;-73.568;2023-12-14T05:41:04;103302.50;;;-7.23;53.16
83448;BME280;73376;45.472;-73.568;2023-12-14T05:43:30;103260.47;;;-7.45;53.41
83448;BME280;73376;45.472;-73.568;2023-12-14T05:45:56;103267.38;;;-7.38;53.66
83448;BME280;73376;45.472;-73.568;2023-12-14T05:48:25;103296.34;;;-7.27;54.25
83448;BME280;73376;45.472;-73.568;2023-12-14T05:50:53;103280.59;;;-7.33;53.92
83448;BME280;73376;45.472;-73.568;2023-12-14T05:53:18;103303.28;;;-7.20;53.89
83448;BME280;73376;45.472;-73.568;2023-12-14T05:55:44;103293.53;;;-7.19;54.01
83448;BME280;73376;45.472;-73.568;2023-12-14T05:58:10;103299.78;;;-7.22;53.99
83448;BME280;73376;45.472;-73.568;2023-12-14T06:00:36;103287.50;;;-7.27;53.94
83448;BME280;73376;45.472;-73.568;2023-12-14T06:03:05;103267.47;;;-7.41;54.07
83448;BME280;73376;45.472;-73.568;2023-12-14T06:05:31;103307.09;;;-7.30;54.10
83448;BME280;73376;45.472;-73.568;2023-12-14T06:07:57;103302.66;;;-7.31;54.56
83448;BME280;73376;45.472;-73.568;2023-12-14T06:10:23;103296.59;;;-7.36;54.62
83448;BME280;73376;45.472;-73.568;2023-12-14T06:12:49;103314.22;;;-7.32;54.35
83448;BME280;73376;45.472;-73.568;2023-12-14T06:15:16;103273.03;;;-7.51;54.04
83448;BME280;73376;45.472;-73.568;2023-12-14T06:17:42;103268.88;;;-7.62;54.68
83448;BME280;73376;45.472;-73.568;2023-12-14T06:20:08;103289.75;;;-7.46;55.32
83448;BME280;73376;45.472;-73.568;2023-12-14T06:22:38;103291.44;;;-7.42;55.06
83448;BME280;73376;45.472;-73.568;2023-12-14T06:25:05;103283.47;;;-7.42;55.19
83448;BME280;73376;45.472;-73.568;2023-12-14T06:27:31;103282.53;;;-7.41;55.63
83448;BME280;73376;45.472;-73.568;2023-12-14T06:29:57;103301.03;;;-7.36;55.60
83448;BME280;73376;45.472;-73.568;2023-12-14T06:32:23;103301.25;;;-7.46;55.24
83448;BME280;73376;45.472;-73.568;2023-12-14T06:34:50;103296.94;;;-7.50;55.24
83448;BME280;73376;45.472;-73.568;2023-12-14T06:37:21;103321.53;;;-7.42;55.54
83448;BME280;73376;45.472;-73.568;2023-12-14T06:39:47;103318.75;;;-7.37;55.79
83448;BME280;73376;45.472;-73.568;2023-12-14T06:42:13;103307.31;;;-7.39;55.47
83448;BME280;73376;45.472;-73.568;2023-12-14T06:44:39;103293.41;;;-7.50;55.25
83448;BME280;73376;45.472;-73.568;2023-12-14T06:47:05;103320.53;;;-7.38;55.37
83448;BME280;73376;45.472;-73.568;2023-12-14T06:49:31;103323.38;;;-7.44;55.74
83448;BME280;73376;45.472;-73.568;2023-12-14T06:51:57;103272.88;;;-7.81;55.87
83448;BME280;73376;45.472;-73.568;2023-12-14T06:54:23;103323.56;;;-7.53;55.80
83448;BME280;73376;45.472;-73.568;2023-12-14T06:56:49;103339.31;;;-7.45;55.89
83448;BME280;73376;45.472;-73.568;2023-12-14T06:59:15;103356.19;;;-7.48;55.97
83448;BME280;73376;45.472;-73.568;2023-12-14T07:01:41;103352.00;;;-7.58;55.90
83448;BME280;73376;45.472;-73.568;2023-12-14T07:04:08;103325.88;;;-7.76;56.30
83448;BME280;73376;45.472;-73.568;2023-12-14T07:06:34;103364.34;;;-7.55;56.32
83448;BME280;73376;45.472;-73.568;2023-12-14T07:09:00;103346.75;;;-7.59;56.40
83448;BME280;73376;45.472;-73.568;2023-12-14T07:11:27;103366.81;;;-7.46;56.37
83448;BME280;73376;45.472;-73.568;2023-12-14T07:13:53;103382.63;;;-7.42;56.21
83448;BME280;73376;45.472;-73.568;2023-12-14T07:16:19;103342.50;;;-7.67;56.41
83448;BME280;73376;45.472;-73.568;2023-12-14T07:18:48;103366.06;;;-7.53;56.54
83448;BME280;73376;45.472;-73.568;2023-12-14T07:21:14;103367.00;;;-7.55;56.43
83448;BME280;73376;45.472;-73.568;2023-12-14T07:23:40;103373.13;;;-7.52;56.40
83448;BME280;73376;45.472;-73.568;2023-12-14T07:26:08;103380.97;;;-7.47;56.60
83448;BME280;73376;45.472;-73.568;2023-12-14T07:28:34;103379.38;;;-7.53;56.62
83448;BME280;73376;45.472;-73.568;2023-12-14T07:31:01;103388.13;;;-7.49;56.57
83448;BME280;73376;45.472;-73.568;2023-12-14T07:33:27;103350.66;;;-7.76;56.71
83448;BME280;73376;45.472;-73.568;2023-12-14T07:35:53;103397.03;;;-7.52;56.80
83448;BME280;73376;45.472;-73.568;2023-12-14T07:38:18;103368.31;;;-7.73;56.93
83448;BME280;73376;45.472;-73.568;2023-12-14T07:40:45;103389.31;;;-7.63;56.95
83448;BME280;73376;45.472;-73.568;2023-12-14T07:43:12;103390.16;;;-7.60;57.15
83448;BME280;73376;45.472;-73.568;2023-12-14T07:45:38;103390.06;;;-7.57;56.95
83448;BME280;73376;45.472;-73.568;2023-12-14T07:48:04;103363.94;;;-7.76;57.10
83448;BME280;73376;45.472;-73.568;2023-12-14T07:50:30;103387.56;;;-7.64;57.46
83448;BME280;73376;45.472;-73.568;2023-12-14T07:52:56;103384.97;;;-7.67;57.55
83448;BME280;73376;45.472;-73.568;2023-12-14T07:55:22;103389.44;;;-7.69;57.43
83448;BME280;73376;45.472;-73.568;2023-12-14T07:57:49;103365.81;;;-7.81;57.48
83448;BME280;73376;45.472;-73.568;2023-12-14T08:00:16;103378.81;;;-7.69;57.70
83448;BME280;73376;45.472;-73.568;2023-12-14T08:02:44;103337.72;;;-7.91;57.79
83448;BME280;73376;45.472;-73.568;2023-12-14T08:05:10;103389.38;;;-7.66;57.75
83448;BME280;73376;45.472;-73.568;2023-12-14T08:07:36;103384.13;;;-7.69;57.88
83448;BME280;73376;45.472;-73.568;2023-12-14T08:10:04;103399.88;;;-7.59;57.65
83448;BME280;73376;45.472;-73.568;2023-12-14T08:12:31;103356.16;;;-7.85;58.11
83448;BME280;73376;45.472;-73.568;2023-12-14T08:14:57;103374.53;;;-7.74;57.61
83448;BME280;73376;45.472;-73.568;2023-12-14T08:17:22;103380.59;;;-7.69;57.77
83448;BME280;73376;45.472;-73.568;2023-12-14T08:19:53;103375.53;;;-7.80;57.77
83448;BME280;73376;45.472;-73.568;2023-12-14T08:22:19;103315.31;;;-8.20;57.65
83448;BME280;73376;45.472;-73.568;2023-12-14T08:24:48;103350.25;;;-7.98;58.42
83448;BME280;73376;45.472;-73.568;2023-12-14T08:27:16;103351.94;;;-7.94;58.55
83448;BME280;73376;45.472;-73.568;2023-12-14T08:29:43;103345.81;;;-7.97;58.92
83448;BME280;73376;45.472;-73.568;2023-12-14T08:32:10;103355.34;;;-7.89;58.49
83448;BME280;73376;45.472;-73.568;2023-12-14T08:34:36;103336.06;;;-7.97;58.53
83448;BME280;73376;45.472;-73.568;2023-12-14T08:37:03;103373.78;;;-7.81;58.50
83448;BME280;73376;45.472;-73.568;2023-12-14T08:39:31;103348.38;;;-7.93;58.79
83448;BME280;73376;45.472;-73.568;2023-12-14T08:41:57;103349.22;;;-7.92;58.76
83448;BME280;73376;45.472;-73.568;2023-12-14T08:44:23;103371.19;;;-7.84;58.83
83448;BME280;73376;45.472;-73.568;2023-12-14T08:46:50;103372.97;;;-7.84;59.23
83448;BME280;73376;45.472;-73.568;2023-12-14T08:49:16;103358.09;;;-7.93;58.93
83448;BME280;73376;45.472;-73.568;2023-12-14T08:51:42;103365.19;;;-7.94;58.96
83448;BME280;73376;45.472;-73.568;2023-12-14T08:54:09;103357.31;;;-7.97;59.21
83448;BME280;73376;45.472;-73.568;2023-12-14T08:56:35;103369.59;;;-7.91;59.54
83448;BME280;73376;45.472;-73.568;2023-12-14T08:59:04;103361.53;;;-7.88;59.64
83448;BME280;73376;45.472;-73.568;2023-12-14T09:01:30;103309.09;;;-8.19;59.94
83448;BME280;73376;45.472;-73.568;2023-12-14T09:03:58;103318.75;;;-8.15;59.42
83448;BME280;73376;45.472;-73.568;2023-12-14T09:06:25;103356.31;;;-7.93;59.58
83448;BME280;73376;45.472;-73.568;2023-12-14T09:08:50;103368.78;;;-7.96;59.39
83448;BME280;73376;45.472;-73.568;2023-12-14T09:11:17;103296.16;;;-8.34;59.37
83448;BME280;73376;45.472;-73.568;2023-12-14T09:13:43;103338.09;;;-8.10;59.79
83448;BME280;73376;45.472;-73.568;2023-12-14T09:16:09;103332.84;;;-8.13;60.22
83448;BME280;73376;45.472;-73.568;2023-12-14T09:18:35;103367.94;;;-7.98;59.76
83448;BME280;73376;45.472;-73.568;2023-12-14T09:21:01;103354.00;;;-8.08;59.80
83448;BME280;73376;45.472;-73.568;2023-12-14T09:23:29;103342.72;;;-8.19;60.21
83448;BME280;73376;45.472;-73.568;2023-12-14T09:25:54;103365.44;;;-8.06;60.22
83448;BME280;73376;45.472;-73.568;2023-12-14T09:28:22;103374.31;;;-8.07;60.53
83448;BME280;73376;45.472;-73.568;2023-12-14T09:30:48;103358.63;;;-8.18;60.40
83448;BME280;73376;45.472;-73.568;2023-12-14T09:33:14;103357.72;;;-8.17;60.58
83448;BME280;73376;45.472;-73.568;2023-12-14T09:35:40;103334.16;;;-8.32;60.69
83448;BME280;73376;45.472;-73.568;2023-12-14T09:38:07;103337.56;;;-8.27;60.71
83448;BME280;73376;45.472;-73.568;2023-12-14T09:40:33;103360.25;;;-8.11;61.28
83448;BME280;73376;45.472;-73.568;2023-12-14T09:43:03;103361.97;;;-8.10;60.61
83448;BME280;73376;45.472;-73.568;2023-12-14T09:45:29;103362.84;;;-8.07;60.91
83448;BME280;73376;45.472;-73.568;2023-12-14T09:48:00;103349.78;;;-8.18;60.97
83448;BME280;73376;45.472;-73.568;2023-12-14T09:50:26;103371.84;;;-8.15;60.74
83448;BME280;73376;45.472;-73.568;2023-12-14T09:52:52;103368.44;;;-8.23;61.28
83448;BME280;73376;45.472;-73.568;2023-12-14T09:55:18;103375.53;;;-8.22;61.62
83448;BME280;73376;45.472;-73.568;2023-12-14T09:57:47;103358.91;;;-8.31;61.31
83448;BME280;73376;45.472;-73.568;2023-12-14T10:00:33;103368.50;;;-8.26;61.35
83448;BME280;73376;45.472;-73.568;2023-12-14T10:03:35;103372.97;;;-8.28;61.48
83448;BME280;73376;45.472;-73.568;2023-12-14T10:06:02;103351.16;;;-8.41;61.86
83448;BME280;73376;45.472;-73.568;2023-12-14T10:08:33;103377.28;;;-8.22;62.47
83448;BME280;73376;45.472;-73.568;2023-12-14T10:10:59;103376.34;;;-8.20;62.43
83448;BME280;73376;45.472;-73.568;2023-12-14T10:13:37;103380.75;;;-8.19;62.44
83448;BME280;73376;45.472;-73.568;2023-12-14T10:16:03;103330.13;;;-8.51;62.21
83448;BME280;73376;45.472;-73.568;2023-12-14T10:18:31;103389.63;;;-8.20;62.07
83448;BME280;73376;45.472;-73.568;2023-12-14T10:20:59;103349.41;;;-8.43;62.15
83448;BME280;73376;45.472;-73.568;2023-12-14T10:23:27;103388.84;;;-8.26;61.81
83448;BME280;73376;45.472;-73.568;2023-12-14T10:25:53;103352.22;;;-8.51;62.07
83448;BME280;73376;45.472;-73.568;2023-12-14T10:28:19;103390.69;;;-8.28;62.65
83448;BME280;73376;45.472;-73.568;2023-12-14T10:30:48;103375.88;;;-8.39;62.59
83448;BME280;73376;45.472;-73.568;2023-12-14T10:33:16;103396.81;;;-8.26;62.87
83448;BME280;73376;45.472;-73.568;2023-12-14T10:35:42;103383.66;;;-8.31;63.18
83448;BME280;73376;45.472;-73.568;2023-12-14T10:38:11;103355.59;;;-8.41;63.27
83448;BME280;73376;45.472;-73.568;2023-12-14T10:40:37;103375.63;;;-8.28;63.02
83448;BME280;73376;45.472;-73.568;2023-12-14T10:43:09;103385.34;;;-8.27;63.16
83448;BME280;73376;45.472;-73.568;2023-12-14T10:45:36;103368.72;;;-8.37;62.90
83448;BME280;73376;45.472;-73.568;2023-12-14T10:48:04;103360.03;;;-8.42;63.32
83448;BME280;73376;45.472;-73.568;2023-12-14T10:50:32;103364.41;;;-8.41;63.24
83448;BME280;73376;45.472;-73.568;2023-12-14T10:52:59;103394.97;;;-8.21;64.08
83448;BME280;73376;45.472;-73.568;2023-12-14T10:55:47;103388.78;;;-8.22;64.24
83448;BME280;73376;45.472;-73.568;2023-12-14T10:58:15;103363.41;;;-8.37;64.11
83448;BME280;73376;45.472;-73.568;2023-12-14T11:00:42;103391.44;;;-8.22;64.15
83448;BME280;73376;45.472;-73.568;2023-12-14T11:03:13;103389.72;;;-8.24;64.41
83448;BME280;73376;45.472;-73.568;2023-12-14T11:05:39;103342.44;;;-8.47;64.34
83448;BME280;73376;45.472;-73.568;2023-12-14T11:08:05;103390.66;;;-8.27;64.05
83448;BME280;73376;45.472;-73.568;2023-12-14T11:10:59;103376.66;;;-8.35;64.29
83448;BME280;73376;45.472;-73.568;2023-12-14T11:13:39;103353.00;;;-8.46;64.69
83448;BME280;73376;45.472;-73.568;2023-12-14T11:16:07;103339.03;;;-8.54;64.45
83448;BME280;73376;45.472;-73.568;2023-12-14T11:18:34;103311.84;;;-8.65;63.91
83448;BME280;73376;45.472;-73.568;2023-12-14T11:21:02;103350.38;;;-8.47;63.77
83448;BME280;73376;45.472;-73.568;2023-12-14T11:23:34;103345.28;;;-8.58;64.14
83448;BME280;73376;45.472;-73.568;2023-12-14T11:26:05;103360.13;;;-8.48;64.65
83448;BME280;73376;45.472;-73.568;2023-12-14T11:28:32;103341.72;;;-8.55;64.50
83448;BME280;73376;45.472;-73.568;2023-12-14T11:31:04;103350.34;;;-8.46;64.32
83448;BME280;73376;45.472;-73.568;2023-12-14T11:33:35;103352.13;;;-8.46;64.29
83448;BME280;73376;45.472;-73.568;2023-12-14T11:36:02;103359.22;;;-8.45;64.58
83448;BME280;73376;45.472;-73.568;2023-12-14T11:38:32;103343.50;;;-8.58;64.68
83448;BME280;73376;45.472;-73.568;2023-12-14T11:41:00;103334.75;;;-8.63;64.23
83448;BME280;73376;45.472;-73.568;2023-12-14T11:43:26;103335.72;;;-8.65;64.27
83448;BME280;73376;45.472;-73.568;2023-12-14T11:45:53;103338.31;;;-8.64;64.80
83448;BME280;73376;45.472;-73.568;2023-12-14T11:48:21;103337.38;;;-8.61;64.37
83448;BME280;73376;45.472;-73.568;2023-12-14T11:50:47;103334.69;;;-8.60;64.33
83448;BME280;73376;45.472;-73.568;2023-12-14T11:53:14;103333.06;;;-8.67;64.17
83448;BME280;73376;45.472;-73.568;2023-12-14T11:55:41;103371.59;;;-8.47;64.45
83448;BME280;73376;45.472;-73.568;2023-12-14T11:58:08;103358.34;;;-8.47;64.29
83448;BME280;73376;45.472;-73.568;2023-12-14T12:00:35;103361.06;;;-8.50;64.33
83448;BME280;73376;45.472;-73.568;2023-12-14T12:03:17;103348.69;;;-8.51;64.13
83448;BME280;73376;45.472;-73.568;2023-12-14T12:05:46;103359.25;;;-8.48;64.17
83448;BME280;73376;45.472;-73.568;2023-12-14T12:08:13;103348.00;;;-8.63;64.15
83448;BME280;73376;45.472;-73.568;2023-12-14T12:10:41;103366.31;;;-8.47;64.39
83448;BME280;73376;45.472;-73.568;2023-12-14T12:13:12;103371.47;;;-8.40;64.06
83448;BME280;73376;45.472;-73.568;2023-12-14T12:15:38;103377.72;;;-8.42;64.09
83448;BME280;73376;45.472;-73.568;2023-12-14T12:18:07;103381.97;;;-8.35;64.17
83448;BME280;73376;45.472;-73.568;2023-12-14T12:20:34;103379.28;;;-8.34;64.06
83448;BME280;73376;45.472;-73.568;2023-12-14T12:23:01;103361.63;;;-8.36;64.19
83448;BME280;73376;45.472;-73.568;2023-12-14T12:25:29;103371.34;;;-8.35;64.01
83448;BME280;73376;45.472;-73.568;2023-12-14T12:28:00;103388.00;;;-8.27;63.74
83448;BME280;73376;45.472;-73.568;2023-12-14T12:30:27;103359.22;;;-8.45;64.01